createdAt,value
2023-02-01T00:01:08.481Z,1.83
2023-02-01T00:05:21.651Z,1.84
2023-02-01T00:09:34.038Z,1.93
2023-02-01T00:13:46.453Z,2.01
2023-02-01T00:17:59.367Z,2.05
2023-02-01T00:22:11.833Z,2.78
2023-02-01T00:26:31.779Z,2.76
2023-02-01T00:30:44.144Z,2.32
2023-02-01T00:34:56.575Z,2.21
2023-02-01T00:39:09.340Z,2.75
2023-02-01T00:43:22.754Z,2.80
2023-02-01T00:47:35.194Z,2.40
2023-02-01T00:51:47.527Z,2.68
2023-02-01T00:56:00.919Z,2.60
2023-02-01T01:00:13.605Z,2.59
2023-02-01T01:04:28.257Z,2.29
2023-02-01T01:08:44.101Z,2.85
2023-02-01T01:12:56.414Z,2.81
2023-02-01T01:17:08.929Z,2.31
2023-02-01T01:21:22.485Z,2.31
2023-02-01T01:25:39.615Z,2.77
2023-02-01T01:29:52.042Z,2.52
2023-02-01T01:34:04.767Z,2.24
2023-02-01T01:38:17.255Z,2.57
2023-02-01T01:42:29.599Z,2.80
2023-02-01T01:46:42.172Z,3.04
2023-02-01T01:51:11.542Z,2.36
2023-02-01T01:55:26.124Z,2.25
2023-02-01T01:59:41.528Z,2.21
2023-02-01T02:03:54.933Z,1.98
2023-02-01T02:08:07.390Z,1.90
2023-02-01T02:12:19.724Z,1.86
2023-02-01T02:16:38.155Z,1.67
2023-02-01T02:20:56.069Z,1.81
2023-02-01T02:25:56.091Z,1.83
2023-02-01T02:30:45.850Z,1.79
2023-02-01T02:35:17.576Z,2.23
2023-02-01T02:39:56.072Z,1.76
2023-02-01T02:44:56.430Z,1.46
2023-02-01T02:49:14.778Z,1.56
2023-02-01T02:54:35.810Z,1.47
2023-02-01T02:59:07.323Z,1.25
2023-02-01T03:03:38.494Z,1.29
2023-02-01T03:08:12.933Z,1.36
2023-02-01T03:12:44.286Z,1.49
2023-02-01T03:17:04.978Z,1.27
2023-02-01T03:21:25.254Z,1.21
2023-02-01T03:25:39.685Z,1.03
2023-02-01T03:30:11.720Z,0.93
2023-02-01T03:34:24.633Z,1.08
2023-02-01T03:39:06.779Z,0.75
2023-02-01T03:43:23.087Z,0.76
2023-02-01T03:47:49.364Z,0.68
2023-02-01T03:52:05.094Z,0.96
2023-02-01T03:56:22.828Z,1.26
2023-02-01T04:00:36.454Z,1.11
2023-02-01T04:04:48.924Z,1.07
2023-02-01T04:09:03.993Z,0.73
2023-02-01T04:13:16.692Z,0.95
2023-02-01T04:17:29.288Z,0.91
2023-02-01T04:21:42.807Z,0.84
2023-02-01T04:25:56.040Z,0.89
2023-02-01T04:30:11.974Z,1.45
2023-02-01T04:34:26.010Z,1.37
2023-02-01T04:38:38.291Z,1.12
2023-02-01T04:42:50.725Z,1.34
2023-02-01T04:47:04.531Z,1.16
2023-02-01T04:51:16.844Z,1.01
2023-02-01T04:55:30.297Z,0.78
2023-02-01T04:59:42.747Z,0.69
2023-02-01T05:03:55.173Z,0.63
2023-02-01T05:08:07.506Z,0.51
2023-02-01T05:12:38.519Z,0.48
2023-02-01T05:16:50.841Z,0.51
2023-02-01T05:21:03.242Z,0.49
2023-02-01T05:25:15.766Z,0.89
2023-02-01T05:29:28.211Z,0.54
2023-02-01T05:33:40.746Z,0.37
2023-02-01T05:37:52.996Z,0.43
2023-02-01T05:42:05.372Z,0.19
2023-02-01T05:46:17.802Z,0.18
2023-02-01T05:50:30.131Z,0.27
2023-02-01T05:54:43.355Z,0.21
2023-02-01T05:58:55.786Z,0.49
2023-02-01T06:03:08.146Z,0.83
2023-02-01T06:07:20.490Z,0.66
2023-02-01T06:11:36.275Z,0.93
2023-02-01T06:15:49.021Z,0.84
2023-02-01T06:20:02.151Z,0.82
2023-02-01T06:24:14.626Z,0.99
2023-02-01T06:28:26.982Z,1.20
2023-02-01T06:32:40.577Z,1.45
2023-02-01T06:36:53.055Z,2.05
2023-02-01T06:41:06.420Z,2.42
2023-02-01T06:45:20.293Z,2.38
2023-02-01T06:49:32.635Z,2.38
2023-02-01T06:53:46.524Z,2.48
2023-02-01T06:57:58.952Z,2.57
2023-02-01T07:02:12.999Z,2.75
2023-02-01T07:06:25.851Z,3.01
2023-02-01T07:10:39.095Z,3.10
2023-02-01T07:14:51.533Z,2.05
2023-02-01T07:19:05.536Z,1.70
2023-02-01T07:23:17.968Z,2.02
2023-02-01T07:27:30.335Z,2.24
2023-02-01T07:31:42.730Z,2.52
2023-02-01T07:35:55.196Z,3.05
2023-02-01T07:40:07.966Z,3.30
2023-02-01T07:44:24.009Z,3.74
2023-02-01T07:48:36.384Z,4.33
2023-02-01T07:52:48.850Z,4.69
2023-02-01T07:57:01.219Z,4.91
2023-02-01T08:01:25.844Z,4.33
2023-02-01T08:05:38.235Z,4.51
2023-02-01T08:09:50.619Z,4.86
2023-02-01T08:14:03.082Z,5.87
2023-02-01T08:18:17.795Z,6.07
2023-02-01T08:22:34.410Z,5.76
2023-02-01T08:26:46.883Z,6.23
2023-02-01T08:30:59.256Z,6.87
2023-02-01T08:35:11.793Z,6.48
2023-02-01T08:39:24.068Z,6.82
2023-02-01T08:43:38.075Z,7.09
2023-02-01T08:47:58.685Z,6.93
2023-02-01T08:52:15.963Z,7.08
2023-02-01T08:56:29.153Z,7.25
2023-02-01T09:00:42.459Z,8.00
2023-02-01T09:04:55.084Z,7.92
2023-02-01T09:09:07.392Z,7.87
2023-02-01T09:13:19.772Z,8.02
2023-02-01T09:17:32.151Z,8.01
2023-02-01T09:21:44.512Z,8.46
2023-02-01T09:26:01.535Z,8.36
2023-02-01T09:30:19.152Z,9.04
2023-02-01T09:34:32.636Z,9.47
2023-02-01T09:38:52.855Z,9.48
2023-02-01T09:43:15.023Z,9.26
2023-02-01T09:47:29.027Z,9.59
2023-02-01T09:51:49.686Z,10.18
2023-02-01T09:56:08.105Z,10.12
2023-02-01T10:00:31.438Z,10.34
2023-02-01T10:04:43.887Z,10.54
2023-02-01T10:09:00.541Z,10.51
2023-02-01T10:13:24.756Z,11.19
2023-02-01T10:18:11.970Z,11.61
2023-02-01T10:23:11.480Z,11.31
2023-02-01T10:27:32.515Z,11.40
2023-02-01T10:31:45.699Z,11.04
2023-02-01T10:36:08.037Z,11.76
2023-02-01T10:40:26.337Z,11.25
2023-02-01T10:44:46.043Z,11.31
2023-02-01T10:49:02.114Z,11.74
2023-02-01T10:53:30.542Z,11.85
2023-02-01T10:57:42.910Z,11.93
2023-02-01T11:02:06.818Z,12.35
2023-02-01T11:06:19.399Z,13.09
2023-02-01T11:10:43.827Z,13.45
2023-02-01T11:15:23.663Z,12.88
2023-02-01T11:19:36.284Z,13.12
2023-02-01T11:23:48.921Z,12.84
2023-02-01T11:28:03.146Z,12.18
2023-02-01T11:32:19.116Z,12.79
2023-02-01T11:36:34.012Z,12.40
2023-02-01T11:40:46.589Z,13.07
2023-02-01T11:45:22.152Z,13.19
2023-02-01T11:49:34.756Z,12.96
2023-02-01T11:54:17.443Z,12.63
2023-02-01T11:58:37.554Z,13.00
2023-02-01T12:03:01.741Z,12.57
2023-02-01T12:07:53.778Z,12.25
2023-02-01T12:12:20.854Z,12.70
2023-02-01T12:17:05.924Z,12.67
2023-02-01T12:21:53.627Z,13.09
2023-02-01T12:26:37.683Z,15.49
2023-02-01T12:31:11.483Z,18.05
2023-02-01T12:35:45.791Z,17.22
2023-02-01T12:40:23.388Z,16.59
2023-02-01T12:45:00.138Z,14.27
2023-02-01T12:49:35.129Z,13.08
2023-02-01T12:53:53.147Z,12.82
2023-02-01T12:58:24.289Z,12.19
2023-02-01T13:03:16.862Z,12.18
2023-02-01T13:07:39.573Z,12.02
2023-02-01T13:11:55.616Z,11.90
2023-02-01T13:16:25.778Z,11.81
2023-02-01T13:20:59.946Z,11.50
2023-02-01T13:25:17.486Z,11.48
2023-02-01T13:29:31.742Z,11.24
2023-02-01T13:34:05.286Z,11.00
2023-02-01T13:38:56.270Z,10.74
2023-02-01T13:43:15.746Z,10.71
2023-02-01T13:47:28.498Z,10.68
2023-02-01T13:51:52.035Z,10.63
2023-02-01T13:56:28.417Z,10.61
2023-02-01T14:00:41.982Z,10.56
2023-02-01T14:04:54.391Z,10.55
2023-02-01T14:09:10.261Z,10.41
2023-02-01T14:13:38.247Z,10.40
2023-02-01T14:17:50.822Z,10.37
2023-02-01T14:22:25.514Z,10.36
2023-02-01T14:26:53.597Z,10.32
2023-02-01T14:31:19.461Z,10.13
2023-02-01T14:35:31.898Z,10.31
2023-02-01T14:39:47.409Z,10.25
2023-02-01T14:44:02.718Z,10.08
2023-02-01T14:48:14.971Z,10.07
2023-02-01T14:52:35.928Z,9.97
2023-02-01T14:56:48.349Z,9.80
2023-02-01T15:01:07.451Z,9.82
2023-02-01T15:05:37.635Z,9.70
2023-02-01T15:09:50.403Z,9.65
2023-02-01T15:14:03.004Z,9.56
2023-02-01T15:18:19.863Z,9.42
2023-02-01T15:22:34.103Z,9.28
2023-02-01T15:26:46.568Z,9.27
2023-02-01T15:31:02.580Z,9.07
2023-02-01T15:35:37.481Z,8.92
2023-02-01T15:40:11.905Z,8.78
2023-02-01T15:44:39.215Z,8.58
2023-02-01T15:48:55.769Z,8.46
2023-02-01T15:53:18.964Z,8.36
2023-02-01T15:57:35.705Z,8.20
2023-02-01T16:01:49.522Z,8.02
2023-02-01T16:06:08.661Z,7.87
2023-02-01T16:10:28.237Z,7.72
2023-02-01T16:14:41.865Z,7.65
2023-02-01T16:18:54.281Z,7.52
2023-02-01T16:23:11.800Z,7.37
2023-02-01T16:27:24.975Z,7.16
2023-02-01T16:31:40.724Z,7.14
2023-02-01T16:35:58.965Z,7.15
2023-02-01T16:40:19.181Z,7.23
2023-02-01T16:44:32.205Z,6.53
2023-02-01T16:48:50.210Z,6.26
2023-02-01T16:53:02.989Z,6.22
2023-02-01T16:57:17.905Z,6.05
2023-02-01T17:01:30.376Z,6.64
2023-02-01T17:05:42.739Z,6.70
2023-02-01T17:09:55.999Z,5.97
2023-02-01T17:14:17.663Z,6.39
2023-02-01T17:18:33.140Z,6.55
2023-02-01T17:22:45.510Z,6.15
2023-02-01T17:26:57.943Z,5.90
2023-02-01T17:31:15.942Z,6.39
2023-02-01T17:35:31.504Z,6.37
2023-02-01T17:39:55.813Z,5.74
2023-02-01T17:44:11.067Z,6.25
2023-02-01T17:48:24.068Z,6.29
2023-02-01T17:52:36.619Z,5.70
2023-02-01T17:56:49.336Z,6.23
2023-02-01T18:01:01.886Z,6.53
2023-02-01T18:05:22.162Z,6.24
2023-02-01T18:09:34.720Z,6.42
2023-02-01T18:13:48.658Z,6.44
2023-02-01T18:18:01.100Z,5.51
2023-02-01T18:22:18.542Z,5.63
2023-02-01T18:26:31.334Z,5.91
2023-02-01T18:30:48.665Z,5.78
2023-02-01T18:35:01.643Z,5.82
2023-02-01T18:39:14.423Z,5.98
2023-02-01T18:43:27.556Z,5.71
2023-02-01T18:47:40.656Z,5.73
2023-02-01T18:51:53.328Z,5.92
2023-02-01T18:56:06.504Z,5.76
2023-02-01T19:00:21.163Z,5.54
2023-02-01T19:04:33.532Z,5.76
2023-02-01T19:08:47.203Z,5.57
2023-02-01T19:13:00.029Z,5.22
2023-02-01T19:17:12.506Z,4.92
2023-02-01T19:21:25.076Z,4.67
2023-02-01T19:25:37.721Z,4.96
2023-02-01T19:29:50.274Z,5.00
2023-02-01T19:34:02.770Z,5.25
2023-02-01T19:38:15.110Z,5.51
2023-02-01T19:42:30.453Z,5.62
2023-02-01T19:46:43.491Z,5.80
2023-02-01T19:50:56.243Z,5.77
2023-02-01T19:55:10.025Z,5.55
2023-02-01T19:59:23.868Z,4.77
2023-02-01T20:03:35.574Z,4.77
2023-02-01T20:07:49.261Z,4.68
2023-02-01T20:12:03.837Z,4.62
2023-02-01T20:16:16.365Z,5.07
2023-02-01T20:20:29.991Z,4.67
2023-02-01T20:24:43.823Z,4.53
2023-02-01T20:28:57.585Z,4.85
2023-02-01T20:33:10.932Z,4.43
2023-02-01T20:37:23.335Z,4.88
2023-02-01T20:41:35.873Z,5.06
2023-02-01T20:45:50.001Z,5.03
2023-02-01T20:50:02.975Z,4.57
2023-02-01T20:54:15.442Z,5.00
2023-02-01T20:58:27.947Z,5.17
2023-02-01T21:02:40.470Z,4.86
2023-02-01T21:06:53.707Z,4.81
2023-02-01T21:11:09.741Z,4.52
2023-02-01T21:15:25.207Z,4.24
2023-02-01T21:19:44.024Z,4.24
2023-02-01T21:23:57.553Z,4.68
2023-02-01T21:28:13.483Z,5.17
2023-02-01T21:32:26.035Z,5.60
2023-02-01T21:36:38.589Z,5.65
2023-02-01T21:41:14.178Z,5.71
2023-02-01T21:45:26.881Z,5.60
2023-02-01T21:49:39.390Z,5.25
2023-02-01T21:53:51.822Z,4.91
2023-02-01T21:58:04.489Z,5.40
2023-02-01T22:02:17.806Z,5.27
2023-02-01T22:06:34.071Z,4.93
2023-02-01T22:10:46.715Z,5.08
2023-02-01T22:14:59.103Z,4.94
2023-02-01T22:19:12.828Z,5.19
2023-02-01T22:23:28.015Z,5.25
2023-02-01T22:28:30.825Z,5.11
2023-02-01T22:32:15.317Z,5.38
2023-02-01T22:36:28.005Z,5.40
2023-02-01T22:40:40.237Z,5.72
2023-02-01T22:44:52.559Z,5.41
2023-02-01T22:49:06.739Z,5.23
2023-02-01T22:53:21.218Z,5.72
2023-02-01T22:57:34.316Z,5.41
2023-02-01T23:01:46.908Z,5.66
2023-02-01T23:05:59.224Z,5.65
2023-02-01T23:10:13.084Z,5.28
2023-02-01T23:14:25.608Z,5.86
2023-02-01T23:18:38.353Z,5.22
2023-02-01T23:22:50.805Z,5.85
2023-02-01T23:27:05.773Z,5.60
2023-02-01T23:31:18.476Z,5.15
2023-02-01T23:35:30.781Z,5.76
2023-02-01T23:39:43.189Z,5.40
2023-02-01T23:43:58.303Z,5.82
2023-02-01T23:48:10.657Z,5.74
2023-02-01T23:52:23.506Z,5.38
2023-02-01T23:56:42.558Z,6.06
